• Join FlightAware (Why Join?)
  • Login
  • US Flag 
03:37AM EDT


 

Airport Tracker/Info


-or-


 

Live Flight TrackerFlight Track Log ✈ SWA3584 ✈ 12-Apr-2013 ✈ KMCO - KPHL

Flight Track Log - Related Links

Times and Time Zones

All times are in EDT time to prevent confusion due to time zone crossing. See the SWA3584 flight status page for this flight to view local times or setup timezone preferences in your user account.

Time Position Orientation Groundspeed Altitude Reporting Facility
EDT Latitude Longitude Course Direction KTS MPH feet Rate Location/Type
08:12AM 28.4167 -81.3000 147° Southeast 148 170 700  Level Orlando TRACON
08:14AM 28.3500 -81.2500 147° Southeast 216 249 3,400 1,740 Climbing Orlando TRACON
08:15AM 28.3167 -81.1833 120° Southeast 284 327 5,000 1,860 Climbing Orlando TRACON
08:16AM 28.3500 -81.1000 66° East 312 359 7,400 2,220 Climbing Orlando TRACON
08:17AM 28.4333 -81.1167 350° North 308 354 9,700 2,220 Climbing Orlando TRACON
08:19AM 28.6314 -81.1992 340° North 326 375 15,000 2,280 Climbing Jacksonville Center
08:20AM 28.7236 -81.2378 340° North 337 388 17,600 2,700 Climbing Jacksonville Center
08:21AM 28.8158 -81.2742 341° North 342 394 20,500 2,160 Climbing Jacksonville Center
08:22AM 28.9103 -81.3128 340° North 347 399 22,000 1,620 Climbing Jacksonville Center
08:23AM 29.0131 -81.3564 340° North 367 422 23,800 1,800 Climbing Jacksonville Center
08:24AM 29.1178 -81.3903 344° North 380 437 25,600 1,560 Climbing Jacksonville Center
08:25AM 29.2308 -81.4053 353° North 397 457 27,000 1,500 Climbing Jacksonville Center
08:26AM 29.3497 -81.4106 358° North 410 472 28,700 1,500 Climbing Jacksonville Center
08:27AM 29.4833 -81.4111 360° North 427 491 30,100 1,500 Climbing Jacksonville Center
08:28AM 29.6025 -81.4139 359° North 427 491 31,800 1,500 Climbing Jacksonville Center
08:29AM 29.7236 -81.4147 360° North 427 491 33,200 1,140 Climbing Jacksonville Center
08:30AM 29.8467 -81.4175 359° North 427 491 34,100 1,080 Climbing Jacksonville Center
08:31AM 29.9717 -81.3989 North 437 503 35,400 1,200 Climbing Jacksonville Center
08:32AM 30.0989 -81.3753 North 444 511 36,500 780 Climbing Jacksonville Center
08:33AM 30.2239 -81.3564 North 444 511 37,000 240 Climbing Jacksonville Center
08:34AM 30.3508 -81.3353 North 449 517 37,000  Level Jacksonville Center
08:35AM 30.4781 -81.3139 North 449 517 37,000  Level Jacksonville Center
08:36AM 30.6072 -81.2947 North 454 522 37,000  Level Jacksonville Center
08:37AM 30.7344 -81.2733 North 459 528 37,000  Level Jacksonville Center
08:38AM 30.8614 -81.2517 North 459 528 37,000  Level Jacksonville Center
08:39AM 30.9864 -81.2328 North 459 528 37,000  Level Jacksonville Center
08:40AM 31.1136 -81.2108 North 457 526 37,000  Level Jacksonville Center
08:41AM 31.2406 -81.1917 North 457 526 37,000  Level Jacksonville Center
08:42AM 31.3653 -81.1481 17° North 459 528 37,000  Level Jacksonville Center
08:43AM 31.4811 -81.0656 31° Northeast 480 552 37,000  Level Jacksonville Center
08:44AM 31.5864 -80.9903 31° Northeast 485 558 37,000  Level Jacksonville Center
08:45AM 31.7125 -80.8997 31° Northeast 480 552 37,000  Level Jacksonville Center
08:46AM 31.8178 -80.8267 31° Northeast 486 559 37,000  Level Jacksonville Center
08:47AM 31.9436 -80.7333 32° Northeast 480 552 37,000  Level Jacksonville Center
08:48AM 32.0592 -80.6519 31° Northeast 480 552 37,000  Level Jacksonville Center
08:49AM 32.1622 -80.5783 31° Northeast 480 552 37,000  Level Jacksonville Center
08:50AM 32.2753 -80.4919 33° Northeast 480 552 37,000  Level Jacksonville Center
08:51AM 32.3906 -80.4078 32° Northeast 480 552 37,000  Level Jacksonville Center
08:52AM 32.5058 -80.3258 31° Northeast 480 552 37,000  Level Jacksonville Center
08:53AM 32.6208 -80.2386 33° Northeast 480 552 37,000  Level Jacksonville Center
08:54AM 32.7208 -80.1294 43° Northeast 485 558 37,000  Level Jacksonville Center
08:55AM 32.8272 -80.0300 38° Northeast 485 558 37,000  Level Jacksonville Center
08:56AM 32.9333 -79.9300 38° Northeast 485 558 37,000  Level Jacksonville Center
08:57AM 33.0397 -79.8347 37° Northeast 485 558 37,000  Level Jacksonville Center
08:58AM 33.1458 -79.7369 38° Northeast 479 551 37,000  Level Jacksonville Center
08:59AM 33.2500 -79.6414 37° Northeast 479 551 37,000 -60 Level Jacksonville Center
09:00AM 33.3539 -79.5456 38° Northeast 473 544 36,900  Descending Jacksonville Center
09:01AM 33.4556 -79.4497 38° Northeast 473 544 37,000  Climbing Jacksonville Center
09:02AM 33.5594 -79.3533 38° Northeast 473 544 37,000  Level Jacksonville Center
09:03AM 33.6631 -79.2569 38° Northeast 473 544 37,000  Level Jacksonville Center
09:04AM 33.7606 -79.1681 37° Northeast 464 534 37,000  Level Jacksonville Center
09:05AM 33.8619 -79.0711 38° Northeast 459 528 37,000  Level Jacksonville Center
09:07AM 34.0211 -78.9217 38° Northeast 451 519 37,000  Level Washington Center
09:08AM 34.1219 -78.8253 38° Northeast 457 526 37,000  Level Washington Center
09:09AM 34.2247 -78.7289 38° Northeast 457 526 37,000  Level Washington Center
09:10AM 34.3272 -78.6322 38° Northeast 457 526 37,000  Level Washington Center
09:11AM 34.4386 -78.5206 40° Northeast 462 532 37,000  Level Washington Center
09:12AM 34.5392 -78.4183 40° Northeast 462 532 37,000  Level Washington Center
09:13AM 34.6417 -78.3133 40° Northeast 467 537 37,000  Level Washington Center
09:14AM 34.7439 -78.2131 39° Northeast 467 537 37,000  Level Washington Center
09:15AM 34.8339 -78.1097 43° Northeast 473 544 37,000  Level Washington Center
09:16AM 34.9361 -78.0064 40° Northeast 473 544 37,000  Level Washington Center
09:17AM 35.0406 -77.8981 40° Northeast 473 544 37,000 -360 Level Washington Center
09:18AM 35.1447 -77.7917 40° Northeast 483 556 36,300 -840 Descending Washington Center
09:19AM 35.2489 -77.6853 40° Northeast 483 556 35,400 -960 Descending Washington Center
09:20AM 35.3653 -77.5864 35° Northeast 496 571 34,400 -240 Descending Washington Center
09:21AM 35.4817 -77.4975 32° Northeast 496 571 35,000 300 Climbing Washington Center
09:22AM 35.5956 -77.4108 32° Northeast 486 559 35,000  Level Washington Center
09:23AM 35.7094 -77.3239 32° Northeast 486 559 35,000  Level Washington Center
09:24AM 35.8319 -77.2342 31° Northeast 486 559 35,000  Level Washington Center
09:25AM 35.9500 -77.1417 32° Northeast 491 565 35,000  Level Washington Center
09:26AM 36.0617 -77.0514 33° Northeast 491 565 35,000  Level Washington Center
09:27AM 36.1794 -76.9636 31° Northeast 491 565 35,000  Level Washington Center
09:28AM 36.2911 -76.8753 33° Northeast 486 559 35,000  Level Washington Center
09:29AM 36.4067 -76.7869 32° Northeast 486 559 35,000  Level Washington Center
09:30AM 36.5222 -76.6981 32° Northeast 486 559 35,000  Level Washington Center
09:31AM 36.6358 -76.6092 32° Northeast 486 559 35,000  Level Washington Center
09:32AM 36.7492 -76.5172 33° Northeast 486 559 35,000  Level Washington Center
09:33AM 36.8625 -76.4253 33° Northeast 486 559 35,000 -360 Level Washington Center
09:34AM 36.9778 -76.3328 33° Northeast 486 559 34,300 -900 Descending Washington Center
09:35AM 37.0931 -76.2428 32° Northeast 486 559 33,300 -1,080 Descending Washington Center
09:36AM 37.2208 -76.1475 31° Northeast 491 565 32,200 -1,080 Descending Washington Center
09:37AM 37.3339 -76.0567 33° Northeast 491 565 31,200 -600 Descending Washington Center
09:38AM 37.4467 -75.9658 33° Northeast 486 559 31,000 -120 Descending Washington Center
09:39AM 37.5597 -75.8775 32° Northeast 481 554 31,000  Level Washington Center
09:40AM 37.6744 -75.7861 32° Northeast 481 554 31,000  Level Washington Center
09:41AM 37.7894 -75.6889 34° Northeast 481 554 31,000 -780 Level Washington Center
09:42AM 37.9019 -75.5969 33° Northeast 481 554 29,500 -1,020 Descending Washington Center
09:43AM 38.0167 -75.4994 34° Northeast 486 559 29,000 -300 Descending Washington Center
09:44AM 38.1397 -75.4175 28° Northeast 486 559 29,000 -960 Level Washington Center
09:45AM 38.2625 -75.3406 26° Northeast 486 559 27,100 -2,220 Descending Washington Center
09:46AM 38.3833 -75.2606 27° Northeast 486 559 24,600 -2,580 Descending Washington Center
09:47AM 38.4997 -75.1858 27° Northeast 474 545 22,000 -2,580 Descending Washington Center
09:48AM 38.6119 -75.1108 28° Northeast 457 526 19,500 -2,640 Descending Washington Center
09:49AM 38.7203 -75.0489 24° Northeast 439 505 16,800 -2,340 Descending Washington Center
09:50AM 38.8242 -74.9789 28° Northeast 426 490 14,900 -900 Descending Washington Center
09:51AM 38.9178 -74.9381 19° North 405 466 15,000 -120 Climbing Washington Center
09:52AM 39.0386 -74.9394 359° North 388 447 14,700 -1,500 Descending Washington Center
09:54AM 39.2306 -74.9514 357° North 376 433 10,800 -2,040 Descending FAA TRACON SMA TRACON (SMA)
09:54AM 39.2628 -74.9531 358° North 374 430 10,300 -1,080 Descending FAA TRACON SMA TRACON (SMA)
09:54AM 39.3011 -74.9544 358° North 362 417 10,100 -780 Descending FAA TRACON SMA TRACON (SMA)
09:55AM 39.3283 -74.9550 359° North 334 384 9,800 -1,500 Descending FAA TRACON SMA TRACON (SMA)
09:55AM 39.3572 -74.9586 354° North 328 377 9,100 -1,140 Descending FAA TRACON SMA TRACON (SMA)
09:56AM 39.4203 -74.9614 358° North 325 374 8,700 -720 Descending FAA TRACON SMA TRACON (SMA)
09:56AM 39.4483 -74.9622 359° North 326 375 8,400 -1,080 Descending FAA TRACON SMA TRACON (SMA)
09:56AM 39.4836 -74.9644 357° North 327 376 8,000 -600 Descending FAA TRACON SMA TRACON (SMA)
09:57AM 39.5094 -74.9700 351° North 302 348 8,000  Level FAA TRACON SMA TRACON (SMA)
09:57AM 39.5319 -74.9936 321° Northwest 282 325 8,000 -180 Level FAA TRACON SMA TRACON (SMA)
09:57AM 39.5414 -75.0211 294° West 270 311 7,900 -600 Descending FAA TRACON SMA TRACON (SMA)
09:58AM 39.5439 -75.0475 277° West 236 272 7,600 -1,080 Descending FAA TRACON SMA TRACON (SMA)
09:58AM 39.5458 -75.0744 275° West 240 276 7,200 -900 Descending FAA TRACON SMA TRACON (SMA)
09:58AM 39.5486 -75.1067 276° West 233 268 7,000 -300 Descending FAA TRACON SMA TRACON (SMA)
09:59AM 39.5564 -75.1308 293° West 249 287 7,000  Level FAA TRACON SMA TRACON (SMA)
09:59AM 39.5714 -75.1531 311° West 259 298 7,000  Level FAA TRACON SMA TRACON (SMA)
09:59AM 39.5914 -75.1794 315° West 273 314 7,000 -480 Level FAA TRACON SMA TRACON (SMA)
10:00AM 39.6081 -75.2008 315° West 273 314 6,700 -780 Descending FAA TRACON SMA TRACON (SMA)
10:00AM 39.6239 -75.2222 314° West 268 308 6,500 -540 Descending FAA TRACON SMA TRACON (SMA)
10:01AM 39.6611 -75.2617 321° Northwest 260 299 6,200 -540 Descending FAA TRACON SMA TRACON (SMA)
10:01AM 39.6844 -75.2653 353° North 269 310 6,000 -300 Descending FAA TRACON SMA TRACON (SMA)
10:01AM 39.7114 -75.2656 360° North 253 291 6,000  Level FAA TRACON SMA TRACON (SMA)
10:02AM 39.7319 -75.2650 North 245 282 6,000  Level FAA TRACON SMA TRACON (SMA)
10:02AM 39.7494 -75.2725 342° North 216 249 6,000  Level FAA TRACON SMA TRACON (SMA)
10:02AM 39.7536 -75.2900 287° West 164 189 6,000  Level FAA TRACON SMA TRACON (SMA)
10:03AM 39.7486 -75.3108 253° West 157 181 6,000 -780 Level FAA TRACON SMA TRACON (SMA)
10:03AM 39.7444 -75.3267 251° West 155 178 5,500 -1,380 Descending FAA TRACON SMA TRACON (SMA)
10:03AM 39.7397 -75.3433 250° West 156 180 5,100 -1,200 Descending FAA TRACON SMA TRACON (SMA)
10:04AM 39.7339 -75.3642 250° West 157 181 4,700 -1,080 Descending FAA TRACON SMA TRACON (SMA)
10:04AM 39.7294 -75.3797 250° West 154 177 4,400 -900 Descending FAA TRACON SMA TRACON (SMA)
10:04AM 39.7303 -75.3964 274° West 152 175 4,100 -780 Descending FAA TRACON SMA TRACON (SMA)
10:05AM 39.7356 -75.4167 289° West 153 176 3,900 -780 Descending FAA TRACON SMA TRACON (SMA)
10:05AM 39.7397 -75.4328 289° West 156 180 3,600 -900 Descending FAA TRACON SMA TRACON (SMA)
10:05AM 39.7442 -75.4497 289° West 158 182 3,300 -900 Descending FAA TRACON SMA TRACON (SMA)
10:06AM 39.7497 -75.4714 288° West 161 185 3,000 -480 Descending FAA TRACON SMA TRACON (SMA)
10:06AM 39.7569 -75.4878 300° West 177 204 3,000  Level FAA TRACON SMA TRACON (SMA)
10:06AM 39.7717 -75.4964 336° Northwest 187 215 3,000  Level FAA TRACON SMA TRACON (SMA)
10:07AM 39.7906 -75.5069 337° Northwest 177 204 3,000  Level FAA TRACON SMA TRACON (SMA)
10:07AM 39.8075 -75.5053 North 212 244 3,000  Level FAA TRACON SMA TRACON (SMA)
10:07AM 39.8169 -75.4844 59° Northeast 210 242 3,000  Level FAA TRACON SMA TRACON (SMA)
10:08AM 39.8242 -75.4583 70° East 206 237 3,000 -480 Level FAA TRACON SMA TRACON (SMA)
10:08AM 39.8286 -75.4367 75° East 202 232 2,700 -1,200 Descending FAA TRACON SMA TRACON (SMA)
10:08AM 39.8325 -75.4150 77° East 201 231 2,200 -1,200 Descending FAA TRACON SMA TRACON (SMA)
10:09AM 39.8378 -75.3900 75° East 199 229 1,900 -900 Descending FAA TRACON SMA TRACON (SMA)
10:09AM 39.8417 -75.3697 76° East 177 204 1,600 -900 Descending FAA TRACON SMA TRACON (SMA)
10:09AM 39.8450 -75.3539 75° East 152 175 1,300 -900 Descending FAA TRACON SMA TRACON (SMA)
10:10AM 39.8483 -75.3361 76° East 121 139 1,000 -660 Descending FAA TRACON SMA TRACON (SMA)
10:10AM 39.8511 -75.3225 75° East 126 145 900 -660 Descending FAA TRACON SMA TRACON (SMA)
10:10AM 39.8539 -75.3094 75° East 122 140 600 -780 Descending FAA TRACON SMA TRACON (SMA)
10:11AM 39.8569 -75.2936 76° East 120 138 400 -600 Descending FAA TRACON SMA TRACON (SMA)
10:11AM 39.8597 -75.2803 75° East 121 139 200 -480 Descending FAA TRACON SMA TRACON (SMA)
10:11AM 39.8597 -75.2803 75° East 121 139 100 -300 Descending FAA TRACON SMA TRACON (SMA)